Time;durP1;ratioP1;P1;durP2;ratioP2;P2;SDS_P1;SDS_P2;PMS_P1;PMS_P2;Temp;Humidity;BMP_temperature;BMP_pressure;BME280_temperature;BME280_humidity;BME280_pressure;Samples;Min_cycle;Max_cycle;Signal;HPM_P1;HPM_P2
2022/10/09 00:00:39;;;;;;;7.73;6.03;;;;;;;6.54;88.15;101256.84;5120908;28;20470;-66
2022/10/09 00:03:06;;;;;;;6.27;5.40;;;;;;;6.52;88.04;101253.44;5120813;28;20532;-66
2022/10/09 00:05:32;;;;;;;8.37;5.50;;;;;;;6.51;87.96;101254.41;5120235;28;20474;-66
2022/10/09 00:07:59;;;;;;;9.87;6.93;;;;;;;6.52;87.80;101253.44;5111153;28;20458;-68
2022/10/09 00:10:26;;;;;;;9.23;5.33;;;;;;;6.53;88.21;101251.66;5119317;28;20519;-68
2022/10/09 00:12:53;;;;;;;7.90;7.07;;;;;;;6.51;87.98;101254.41;5121137;28;20443;-68
2022/10/09 00:15:21;;;;;;;11.03;7.17;;;;;;;6.57;88.41;101248.69;5117388;28;20452;-68
2022/10/09 00:17:48;;;;;;;8.63;5.90;;;;;;;6.55;88.38;101249.75;5090278;28;20443;-67
2022/10/09 00:20:15;;;;;;;11.43;6.57;;;;;;;6.55;88.34;101252.41;5120407;28;20824;-67
2022/10/09 00:22:42;;;;;;;9.43;6.77;;;;;;;6.54;88.38;101246.22;5122039;28;20450;-67
2022/10/09 00:25:09;;;;;;;9.80;6.37;;;;;;;6.53;88.42;101249.00;5114698;28;20456;-66
2022/10/09 00:27:36;;;;;;;9.27;6.80;;;;;;;6.53;88.16;101249.00;5121404;28;20535;-67
2022/10/09 00:30:03;;;;;;;8.10;7.23;;;;;;;6.46;88.18;101250.28;5121786;28;20510;-67
2022/10/09 00:32:31;;;;;;;9.70;6.70;;;;;;;6.43;88.48;101251.31;5121613;28;20939;-67
2022/10/09 00:34:58;;;;;;;9.70;6.40;;;;;;;6.39;88.40;101250.66;5121179;28;20491;-67
2022/10/09 00:37:25;;;;;;;11.13;6.13;;;;;;;6.35;88.55;101251.78;5120460;28;20475;-67
2022/10/09 00:39:52;;;;;;;11.17;7.00;;;;;;;6.29;88.45;101248.63;5114581;28;20505;-66
2022/10/09 00:42:18;;;;;;;6.90;6.10;;;;;;;6.23;88.61;101249.81;5117832;28;20788;-66
2022/10/09 00:44:56;;;;;;;9.70;6.40;;;;;;;6.20;88.79;101255.31;5121364;28;20449;-66
2022/10/09 00:47:26;;;;;;;7.40;6.33;;;;;;;6.16;88.70;101256.41;5111238;28;20551;-66
2022/10/09 00:49:58;;;;;;;8.77;6.90;;;;;;;6.11;88.89;101263.78;5120166;28;20481;-66
2022/10/09 00:52:26;;;;;;;9.07;7.20;;;;;;;6.08;88.73;101262.16;5120400;28;20596;-64
2022/10/09 00:54:53;;;;;;;8.63;6.13;;;;;;;6.07;88.95;101265.75;5120721;28;21031;-64
2022/10/09 00:57:20;;;;;;;9.43;6.23;;;;;;;6.06;88.85;101271.16;5120197;28;20470;-64
2022/10/09 00:59:47;;;;;;;7.60;5.90;;;;;;;6.06;88.78;101268.50;5112782;28;20474;-64
2022/10/09 01:02:14;;;;;;;11.30;7.53;;;;;;;6.07;88.86;101279.03;5120380;28;20503;-64
2022/10/09 01:04:41;;;;;;;8.43;6.27;;;;;;;6.09;88.56;101274.47;5119612;28;20463;-64
2022/10/09 01:07:27;;;;;;;7.37;6.20;;;;;;;6.15;88.59;101268.00;5119813;28;20482;-64
2022/10/09 01:09:57;;;;;;;9.03;6.77;;;;;;;6.09;88.61;101278.94;5119117;28;20513;-64
2022/10/09 01:12:31;;;;;;;7.37;5.43;;;;;;;6.05;88.70;101272.97;5117846;28;20470;-64
2022/10/09 01:15:06;;;;;;;8.47;6.37;;;;;;;6.03;88.72;101280.16;5109259;28;20450;-65
2022/10/09 01:17:37;;;;;;;6.57;5.90;;;;;;;6.06;88.76;101282.66;5119693;28;20464;-65
2022/10/09 01:20:19;;;;;;;8.80;6.80;;;;;;;6.06;88.36;101277.34;5111956;28;20452;-65
2022/10/09 01:23:00;;;;;;;11.20;6.70;;;;;;;6.03;88.42;101275.69;5106778;28;20454;-65
2022/10/09 01:25:32;;;;;;;7.03;5.37;;;;;;;6.03;88.20;101272.19;5119480;28;20470;-64
2022/10/09 01:28:01;;;;;;;8.20;6.27;;;;;;;5.99;88.22;101266.19;5119973;28;20464;-64
2022/10/09 01:30:28;;;;;;;8.37;5.90;;;;;;;5.97;88.69;101273.41;5119197;28;20534;-65
2022/10/09 01:32:56;;;;;;;7.70;6.10;;;;;;;5.96;89.24;101268.16;5099732;28;20473;-64
2022/10/09 01:35:23;;;;;;;9.73;5.73;;;;;;;5.92;89.42;101271.88;5119132;28;20458;-64
2022/10/09 01:37:51;;;;;;;7.60;6.17;;;;;;;5.89;89.12;101266.78;5106908;28;20447;-64
2022/10/09 01:40:18;;;;;;;9.50;6.27;;;;;;;5.87;89.41;101265.97;5119368;28;20451;-64
2022/10/09 01:42:45;;;;;;;10.30;6.90;;;;;;;5.81;89.50;101261.88;5120826;28;20438;-64
2022/10/09 01:45:15;;;;;;;8.10;6.80;;;;;;;5.84;89.76;101267.88;5118891;28;20544;-64
2022/10/09 01:47:41;;;;;;;7.43;6.70;;;;;;;5.82;89.58;101264.44;5120378;28;20450;-65
2022/10/09 01:50:13;;;;;;;13.10;8.63;;;;;;;5.88;90.18;101263.25;5118700;28;20454;-65
2022/10/09 01:52:44;;;;;;;10.70;6.57;;;;;;;5.95;90.76;101261.94;5117949;28;20435;-65
2022/10/09 01:55:24;;;;;;;8.23;7.13;;;;;;;6.01;90.80;101252.84;5119429;28;20834;-65
2022/10/09 01:57:53;;;;;;;8.30;6.67;;;;;;;6.05;91.44;101258.84;5123979;28;20454;-65
2022/10/09 02:00:27;;;;;;;9.00;7.00;;;;;;;5.98;91.27;101259.16;5123626;28;20603;-65
2022/10/09 02:02:54;;;;;;;18.57;7.73;;;;;;;5.93;91.31;101260.34;5124446;28;20506;-65
2022/10/09 02:05:23;;;;;;;7.53;6.30;;;;;;;5.78;90.68;101260.25;5122470;28;20450;-65
2022/10/09 02:07:50;;;;;;;9.10;6.47;;;;;;;5.73;90.71;101253.47;5113765;28;20494;-65
2022/10/09 02:10:17;;;;;;;11.50;7.10;;;;;;;5.64;90.37;101255.72;5122834;28;20504;-65
2022/10/09 02:12:50;;;;;;;7.80;6.67;;;;;;;5.64;89.94;101254.84;5123811;28;20434;-65
2022/10/09 02:15:16;;;;;;;7.43;6.57;;;;;;;5.55;90.35;101258.00;5122860;28;20454;-65
2022/10/09 02:17:47;;;;;;;7.40;5.93;;;;;;;5.55;90.02;101256.19;5123294;28;20446;-65
2022/10/09 02:20:19;;;;;;;7.53;6.53;;;;;;;5.52;89.79;101255.50;5121850;28;20495;-65
2022/10/09 02:22:47;;;;;;;8.50;5.67;;;;;;;5.47;89.60;101242.53;5115362;28;20426;-66
2022/10/09 02:25:14;;;;;;;7.63;6.23;;;;;;;5.46;89.77;101249.59;5120022;28;20450;-65
2022/10/09 02:27:41;;;;;;;7.57;6.10;;;;;;;5.44;89.91;101246.19;5123849;28;21023;-65
2022/10/09 02:30:09;;;;;;;9.10;6.90;;;;;;;5.56;90.95;101251.78;5123513;28;20888;-65
2022/10/09 02:32:36;;;;;;;9.27;6.27;;;;;;;5.54;91.29;101262.47;5124200;28;20501;-65
2022/10/09 02:35:06;;;;;;;7.73;6.17;;;;;;;5.54;90.99;101256.28;5123733;28;20451;-65
2022/10/09 02:37:32;;;;;;;8.80;6.70;;;;;;;5.53;91.10;101255.44;5122867;28;20463;-65
2022/10/09 02:39:59;;;;;;;10.03;6.90;;;;;;;5.53;91.40;101251.94;5117328;28;20446;-65
2022/10/09 02:42:26;;;;;;;12.67;8.13;;;;;;;5.67;92.34;101254.66;5124028;28;20478;-66
2022/10/09 02:44:53;;;;;;;14.40;7.20;;;;;;;5.73;92.76;101251.69;5123438;28;20552;-66
2022/10/09 02:47:20;;;;;;;9.60;7.40;;;;;;;5.82;92.55;101250.34;5123025;28;20486;-66
2022/10/09 02:49:47;;;;;;;10.60;7.57;;;;;;;5.75;92.48;101243.66;5122500;28;20474;-66
2022/10/09 02:52:15;;;;;;;12.10;7.70;;;;;;;5.66;92.38;101245.88;5122664;28;20768;-66
2022/10/09 02:54:42;;;;;;;14.93;7.20;;;;;;;5.62;92.41;101241.69;5104077;28;20443;-66
2022/10/09 02:57:09;;;;;;;11.63;8.00;;;;;;;5.66;92.86;101248.53;5121762;28;20510;-66
2022/10/09 02:59:35;;;;;;;8.77;6.87;;;;;;;5.62;92.54;101248.75;5120081;28;20478;-66
2022/10/09 03:02:02;;;;;;;9.10;6.57;;;;;;;5.54;92.29;101250.97;5117720;28;20474;-66
2022/10/09 03:04:29;;;;;;;10.60;6.33;;;;;;;5.54;92.10;101246.53;5121839;28;20523;-66
2022/10/09 03:06:55;;;;;;;10.63;7.50;;;;;;;5.47;92.25;101240.72;5121665;28;20517;-66
2022/10/09 03:09:24;;;;;;;8.40;6.80;;;;;;;5.44;92.12;101243.53;5121416;28;20482;-66
2022/10/09 03:11:51;;;;;;;8.03;6.27;;;;;;;5.43;91.72;101246.25;5110361;28;20490;-66
2022/10/09 03:14:17;;;;;;;11.43;6.27;;;;;;;5.37;91.46;101259.88;5121923;28;20471;-66
2022/10/09 03:16:44;;;;;;;7.80;6.70;;;;;;;5.31;91.55;101255.72;5122058;28;20511;-66
2022/10/09 03:19:11;;;;;;;8.43;7.43;;;;;;;5.28;92.16;101245.31;5120548;28;20454;-66
2022/10/09 03:21:37;;;;;;;18.87;9.33;;;;;;;5.30;92.94;101250.53;5121615;28;20554;-66
2022/10/09 03:24:05;;;;;;;14.87;8.37;;;;;;;5.40;93.43;101249.06;5122364;28;20468;-66
2022/10/09 03:26:33;;;;;;;7.63;6.80;;;;;;;5.42;93.61;101250.72;5111043;28;20483;-66
2022/10/09 03:29:03;;;;;;;14.83;7.40;;;;;;;5.40;93.17;101251.72;5113118;28;20450;-66
2022/10/09 03:31:30;;;;;;;12.60;8.43;;;;;;;5.39;93.09;101253.53;5122170;28;20501;-66
2022/10/09 03:33:57;;;;;;;13.50;9.27;;;;;;;5.44;93.49;101261.25;5109274;28;20470;-65
2022/10/09 03:36:23;;;;;;;13.73;8.60;;;;;;;5.38;93.56;101267.75;5121646;28;20494;-65
2022/10/09 03:38:50;;;;;;;10.27;8.97;;;;;;;5.42;93.89;101260.47;5122675;28;20434;-64
2022/10/09 03:41:17;;;;;;;14.13;7.40;;;;;;;5.29;93.21;101273.50;5121582;28;20479;-65
2022/10/09 03:43:46;;;;;;;8.80;7.40;;;;;;;5.17;92.97;101269.72;5121447;28;20471;-65
2022/10/09 03:46:13;;;;;;;8.87;7.97;;;;;;;5.06;93.13;101272.94;5101763;28;20827;-65
2022/10/09 03:48:40;;;;;;;9.57;7.70;;;;;;;5.17;93.09;101268.84;5115724;28;20442;-64
2022/10/09 03:51:06;;;;;;;11.70;8.13;;;;;;;5.21;93.01;101265.13;5120945;28;20521;-65
2022/10/09 03:53:33;;;;;;;13.23;8.40;;;;;;;5.17;92.95;101261.75;5121832;28;20442;-66
2022/10/09 03:56:00;;;;;;;11.20;8.90;;;;;;;5.11;92.92;101274.50;5120713;28;20492;-67
2022/10/09 03:58:26;;;;;;;13.70;8.07;;;;;;;5.22;92.76;101267.66;5120609;28;20519;-66
2022/10/09 04:00:55;;;;;;;9.73;8.73;;;;;;;5.14;92.75;101269.88;5101280;28;20521;-66
2022/10/09 04:03:22;;;;;;;11.33;7.83;;;;;;;5.05;92.77;101271.22;5111561;28;20488;-65
2022/10/09 04:05:49;;;;;;;12.83;7.40;;;;;;;5.02;92.73;101271.38;5120367;28;20467;-65
2022/10/09 04:08:16;;;;;;;7.57;6.80;;;;;;;5.00;92.66;101272.38;5121744;28;20445;-66
2022/10/09 04:10:43;;;;;;;9.80;7.90;;;;;;;4.92;92.25;101271.94;5120170;28;20952;-65
2022/10/09 04:13:10;;;;;;;12.80;8.40;;;;;;;4.95;92.48;101266.47;5121937;28;20467;-65
2022/10/09 04:15:37;;;;;;;10.47;8.03;;;;;;;4.86;92.40;101268.69;5116917;28;20514;-65
2022/10/09 04:18:05;;;;;;;11.67;7.40;;;;;;;4.81;92.02;101272.47;5105749;28;20446;-65
2022/10/09 04:20:32;;;;;;;11.83;7.97;;;;;;;4.78;92.00;101267.34;5119613;28;20466;-65
2022/10/09 04:22:59;;;;;;;9.90;8.10;;;;;;;4.76;91.78;101259.47;5121469;28;20502;-65
2022/10/09 04:25:25;;;;;;;11.33;7.13;;;;;;;4.72;91.55;101257.91;5116246;28;20461;-65
2022/10/09 04:27:52;;;;;;;8.73;7.80;;;;;;;4.68;91.56;101256.34;5111708;28;20478;-65
2022/10/09 04:30:19;;;;;;;9.97;7.80;;;;;;;4.66;91.60;101253.78;5120735;28;20476;-65
2022/10/09 04:32:46;;;;;;;9.70;8.50;;;;;;;4.62;91.55;101252.22;5121451;28;20494;-66
2022/10/09 04:35:15;;;;;;;8.87;7.93;;;;;;;4.58;91.04;101258.59;5116038;28;20446;-65
2022/10/09 04:37:42;;;;;;;7.93;6.93;;;;;;;4.60;91.20;101258.53;5121264;28;20442;-65
2022/10/09 04:40:09;;;;;;;9.63;7.30;;;;;;;4.54;91.00;101257.06;5119689;28;20454;-66
2022/10/09 04:42:36;;;;;;;9.10;6.87;;;;;;;4.52;90.69;101254.47;5121225;28;20442;-65
2022/10/09 04:45:03;;;;;;;12.23;7.40;;;;;;;4.52;90.73;101258.94;5121052;28;20466;-65
2022/10/09 04:47:29;;;;;;;8.50;7.30;;;;;;;4.45;90.66;101258.38;5120693;28;20851;-65
2022/10/09 04:49:56;;;;;;;10.47;7.73;;;;;;;4.49;90.95;101253.78;5104685;28;20463;-65
2022/10/09 04:52:24;;;;;;;12.63;7.73;;;;;;;4.47;90.74;101259.16;5114978;28;20500;-66
2022/10/09 04:54:51;;;;;;;9.40;7.23;;;;;;;4.47;90.60;101256.50;5113155;28;20431;-66
2022/10/09 04:57:18;;;;;;;10.70;6.87;;;;;;;4.42;90.95;101255.88;5120470;28;20470;-65
2022/10/09 04:59:45;;;;;;;14.73;7.07;;;;;;;4.46;91.32;101253.91;5120691;28;20454;-65
2022/10/09 05:02:11;;;;;;;12.10;7.93;;;;;;;4.52;92.11;101257.13;5119767;28;20482;-65
2022/10/09 05:04:38;;;;;;;13.63;9.90;;;;;;;4.67;93.45;101262.56;5108002;28;20450;-65
2022/10/09 05:07:05;;;;;;;17.00;10.17;;;;;;;4.78;94.17;101256.75;5119551;28;20505;-66
2022/10/09 05:09:33;;;;;;;12.53;9.67;;;;;;;4.84;94.63;101252.00;5120398;28;20547;-65
2022/10/09 05:12:00;;;;;;;11.67;9.87;;;;;;;4.94;94.82;101256.81;5120624;28;20483;-65
2022/10/09 05:14:26;;;;;;;13.60;8.73;;;;;;;4.87;94.71;101258.91;5120532;28;20449;-65
2022/10/09 05:16:54;;;;;;;14.33;9.67;;;;;;;4.92;94.70;101256.91;5120321;28;20482;-65
2022/10/09 05:19:20;;;;;;;14.67;10.97;;;;;;;4.93;94.62;101244.50;5117250;28;20546;-65
2022/10/09 05:21:47;;;;;;;14.13;11.57;;;;;;;4.89;94.79;101249.94;5120211;28;20470;-66
2022/10/09 05:24:14;;;;;;;14.50;10.57;;;;;;;4.93;94.99;101248.03;5117841;28;20482;-65
2022/10/09 05:26:42;;;;;;;17.17;10.07;;;;;;;4.88;94.66;101258.00;5120403;28;20500;-64
2022/10/09 05:29:09;;;;;;;11.67;9.00;;;;;;;4.86;94.51;101259.84;5120885;28;20451;-65
2022/10/09 05:31:36;;;;;;;13.13;9.87;;;;;;;4.77;94.25;101262.97;5119751;28;20510;-64
2022/10/09 05:34:04;;;;;;;14.17;8.60;;;;;;;4.65;93.95;101260.03;5117547;28;20450;-65
2022/10/09 05:36:30;;;;;;;27.13;21.80;;;;;;;4.55;93.54;101261.44;5115074;28;20495;-65
2022/10/09 05:38:59;;;;;;;10.73;9.10;;;;;;;4.47;93.65;101272.38;5109367;28;20456;-65
2022/10/09 05:41:27;;;;;;;15.80;9.50;;;;;;;4.44;93.28;101267.22;5092481;28;20499;-65
2022/10/09 05:43:55;;;;;;;12.27;10.00;;;;;;;4.46;93.15;101269.81;5099356;28;20447;-65
2022/10/09 05:46:23;;;;;;;14.70;10.07;;;;;;;4.45;92.79;101271.59;5106724;28;20497;-65
2022/10/09 05:48:52;;;;;;;14.20;9.37;;;;;;;4.52;92.65;101266.88;5117399;28;20450;-65
2022/10/09 05:51:20;;;;;;;11.87;9.67;;;;;;;4.70;92.59;101265.06;5119274;28;20512;-65
2022/10/09 05:53:48;;;;;;;13.87;9.53;;;;;;;4.79;92.62;101261.09;5119786;28;20495;-65
2022/10/09 05:56:17;;;;;;;23.27;10.57;;;;;;;4.93;92.43;101265.69;5105487;28;20495;-65
2022/10/09 05:58:44;;;;;;;13.00;10.20;;;;;;;5.14;92.91;101266.34;5110813;28;20443;-65
2022/10/09 06:01:12;;;;;;;15.97;10.90;;;;;;;5.25;92.68;101261.38;5118998;28;20588;-65
2022/10/09 06:03:39;;;;;;;15.53;10.50;;;;;;;5.37;92.77;101270.47;5118390;28;21002;-65
2022/10/09 06:06:07;;;;;;;16.50;10.40;;;;;;;5.43;92.28;101273.66;5106014;28;20881;-65
2022/10/09 06:08:34;;;;;;;15.80;11.43;;;;;;;5.62;92.16;101268.22;5103167;28;20527;-65
2022/10/09 06:11:09;;;;;;;15.40;10.03;;;;;;;5.70;91.80;101269.59;5103797;28;20487;-65
2022/10/09 06:13:35;;;;;;;13.60;9.90;;;;;;;6.14;91.35;101268.94;5114246;28;20494;-68
2022/10/09 06:16:02;;;;;;;16.67;10.57;;;;;;;7.17;91.10;101276.19;5116361;28;20475;-69
2022/10/09 06:18:30;;;;;;;18.03;14.80;;;;;;;8.09;88.05;101277.53;5118824;28;20841;-69
2022/10/09 06:21:00;;;;;;;25.37;17.63;;;;;;;8.74;81.07;101273.31;5118674;28;20692;-69
2022/10/09 06:23:27;;;;;;;16.20;13.03;;;;;;;8.46;74.84;101265.34;5120216;28;20464;-69
2022/10/09 06:25:55;;;;;;;10.20;8.83;;;;;;;8.16;75.54;101273.53;5116793;28;20474;-69
2022/10/09 06:28:21;;;;;;;35.63;30.93;;;;;;;8.71;73.01;101281.50;5117344;28;20447;-69
2022/10/09 06:30:48;;;;;;;12.53;8.97;;;;;;;9.82;68.82;101272.00;5098581;28;20463;-69
2022/10/09 06:33:15;;;;;;;6.97;6.27;;;;;;;9.32;69.20;101268.44;5101742;28;20831;-69
2022/10/09 06:35:44;;;;;;;5.97;5.40;;;;;;;9.66;68.32;101272.25;5118541;28;20462;-70
2022/10/09 06:38:10;;;;;;;10.87;9.50;;;;;;;9.42;69.14;101269.50;5119439;28;20447;-70
2022/10/09 06:40:37;;;;;;;10.57;9.57;;;;;;;9.64;67.62;101274.19;5117741;28;20462;-70
2022/10/09 06:43:04;;;;;;;10.97;9.90;;;;;;;9.61;67.56;101274.41;5120885;28;20452;-70
2022/10/09 06:45:31;;;;;;;9.50;7.63;;;;;;;10.08;67.17;101280.78;5101919;28;20470;-70
2022/10/09 06:47:58;;;;;;;7.90;6.13;;;;;;;11.02;64.22;101281.81;5105971;28;20443;-70
2022/10/09 06:50:25;;;;;;;11.10;5.60;;;;;;;11.24;62.83;101289.06;5119319;28;20980;-70
2022/10/09 06:52:53;;;;;;;8.80;4.70;;;;;;;11.23;64.01;101281.13;5122986;28;20515;-70
2022/10/09 06:55:20;;;;;;;7.67;6.87;;;;;;;12.17;60.08;101293.31;5121798;28;20482;-70
2022/10/09 06:57:46;;;;;;;8.60;7.50;;;;;;;12.22;58.70;101291.13;5121626;28;20458;-70
2022/10/09 07:00:14;;;;;;;5.70;5.10;;;;;;;11.15;63.43;101289.78;5109159;28;20450;-70
2022/10/09 07:02:42;;;;;;;5.80;4.70;;;;;;;10.62;65.68;101289.38;5122952;28;20434;-70
2022/10/09 07:05:09;;;;;;;9.43;5.50;;;;;;;11.00;66.84;101299.81;5118340;28;20723;-71
2022/10/09 07:07:40;;;;;;;6.67;5.40;;;;;;;12.28;62.47;101297.78;5107020;28;20458;-70
2022/10/09 07:10:09;;;;;;;6.13;5.53;;;;;;;13.92;57.13;101300.88;5121691;28;20481;-70
2022/10/09 07:12:36;;;;;;;7.40;5.10;;;;;;;14.08;55.52;101301.22;5121942;28;20489;-70
2022/10/09 07:15:04;;;;;;;8.57;4.50;;;;;;;14.63;53.97;101298.06;5122636;28;20747;-70
2022/10/09 07:17:31;;;;;;;6.30;4.60;;;;;;;14.54;53.38;101290.78;5117932;28;20513;-70
2022/10/09 07:19:58;;;;;;;7.73;4.40;;;;;;;14.16;54.78;101300.50;5120573;28;20555;-70
2022/10/09 07:22:25;;;;;;;6.33;5.73;;;;;;;14.07;55.32;101306.72;5122451;28;20466;-70
2022/10/09 07:24:52;;;;;;;8.03;4.80;;;;;;;14.56;53.66;101301.41;5117251;28;20455;-70
2022/10/09 07:27:20;;;;;;;6.40;4.53;;;;;;;13.88;55.74;101304.81;5122056;28;20474;-70
2022/10/09 07:29:46;;;;;;;4.93;4.43;;;;;;;14.97;53.22;101303.00;5103664;28;20464;-70
2022/10/09 07:32:13;;;;;;;7.30;5.10;;;;;;;14.98;52.02;101306.53;5105566;28;20485;-70
2022/10/09 07:34:40;;;;;;;7.00;4.83;;;;;;;16.27;48.78;101304.13;5114857;28;20447;-71
2022/10/09 07:37:06;;;;;;;7.53;5.30;;;;;;;14.99;52.89;101290.25;5104344;28;21008;-71
2022/10/09 07:39:34;;;;;;;6.93;4.60;;;;;;;15.43;51.13;101295.09;5104041;28;20455;-71
2022/10/09 07:42:01;;;;;;;5.93;5.10;;;;;;;16.18;49.13;101295.94;5102069;28;20547;-71
2022/10/09 07:44:29;;;;;;;8.07;4.70;;;;;;;15.63;50.32;101302.13;5119672;28;20438;-70
2022/10/09 07:46:56;;;;;;;6.47;4.53;;;;;;;15.98;49.71;101294.34;5113339;28;20565;-70
2022/10/09 07:49:22;;;;;;;5.03;4.53;;;;;;;17.54;45.84;101289.47;5119169;28;20446;-71
2022/10/09 07:51:49;;;;;;;6.40;4.60;;;;;;;16.55;47.59;101303.03;5100704;28;20499;-71
2022/10/09 07:54:16;;;;;;;6.10;5.00;;;;;;;16.30;49.58;101299.25;5100725;28;20464;-71
2022/10/09 07:56:43;;;;;;;5.70;4.80;;;;;;;16.93;47.20;101292.94;5100580;28;20483;-71
2022/10/09 07:59:12;;;;;;;5.30;3.70;;;;;;;17.95;44.91;101295.94;5117000;28;20475;-71
2022/10/09 08:01:41;;;;;;;5.33;4.60;;;;;;;18.29;44.14;101289.59;5100609;28;20483;-70
2022/10/09 08:04:08;;;;;;;7.27;5.10;;;;;;;17.81;45.33;101294.69;5100701;28;20441;-70
2022/10/09 08:06:35;;;;;;;5.97;4.80;;;;;;;17.86;45.22;101286.97;5100233;28;20481;-70
2022/10/09 08:09:03;;;;;;;6.37;4.60;;;;;;;18.67;43.89;101297.28;5112846;28;20653;-70
2022/10/09 08:11:30;;;;;;;7.43;5.10;;;;;;;18.18;45.45;101292.63;5120720;28;20522;-68
2022/10/09 08:13:57;;;;;;;5.63;5.07;;;;;;;18.00;45.63;101292.72;5105443;28;20579;-68
2022/10/09 08:16:24;;;;;;;8.20;5.10;;;;;;;18.88;43.72;101292.25;5096078;28;20645;-67
2022/10/09 08:18:56;;;;;;;4.77;4.33;;;;;;;18.70;43.51;101288.84;5098349;28;20445;-67
2022/10/09 08:21:23;;;;;;;5.37;4.67;;;;;;;19.00;43.75;101284.63;5089859;28;20473;-68
2022/10/09 08:23:54;;;;;;;5.73;5.13;;;;;;;17.57;47.64;101289.13;5099764;28;20511;-68
2022/10/09 08:26:22;;;;;;;5.30;4.80;;;;;;;18.34;46.37;101289.97;5096949;28;20476;-68
2022/10/09 08:28:50;;;;;;;5.60;4.60;;;;;;;18.17;45.80;101291.78;5100407;28;20515;-68
2022/10/09 08:31:17;;;;;;;6.07;4.00;;;;;;;19.94;42.34;101285.72;5099385;28;20461;-67
2022/10/09 08:33:44;;;;;;;6.40;5.33;;;;;;;19.61;42.60;101287.72;5099526;28;20470;-70
2022/10/09 08:36:14;;;;;;;8.50;5.33;;;;;;;19.40;43.52;101284.72;5098601;28;20481;-68
2022/10/09 08:38:42;;;;;;;6.90;5.63;;;;;;;19.33;43.95;101287.28;5099738;28;20482;-69
2022/10/09 08:41:12;;;;;;;7.33;4.97;;;;;;;20.05;42.48;101286.38;5098429;28;20528;-69
2022/10/09 08:43:42;;;;;;;8.37;6.43;;;;;;;19.10;44.56;101284.44;5097214;28;20450;-69
2022/10/09 08:46:15;;;;;;;9.47;5.07;;;;;;;20.17;42.43;101287.66;5099371;28;20455;-69
2022/10/09 08:48:46;;;;;;;11.70;5.40;;;;;;;19.55;43.56;101283.00;5098818;28;20477;-69
2022/10/09 08:51:21;;;;;;;6.33;4.90;;;;;;;20.71;41.05;101277.81;5099055;28;20468;-70
2022/10/09 08:53:50;;;;;;;5.47;4.97;;;;;;;21.60;39.31;101269.84;5097099;28;20513;-70
2022/10/09 08:56:17;;;;;;;5.10;4.50;;;;;;;21.74;38.81;101266.25;5097950;28;20485;-69
2022/10/09 08:58:44;;;;;;;8.87;5.00;;;;;;;20.52;41.51;101280.00;5100087;28;20446;-69
2022/10/09 09:01:17;;;;;;;7.60;4.80;;;;;;;21.05;40.78;101264.59;5098855;28;20478;-69
2022/10/09 09:03:59;;;;;;;8.07;5.03;;;;;;;19.74;44.08;101269.03;5099236;28;20517;-74
2022/10/09 09:06:35;;;;;;;8.13;4.77;;;;;;;20.90;41.12;101261.03;5091227;28;20514;-70
2022/10/09 09:09:06;;;;;;;7.80;5.40;;;;;;;20.51;41.83;101270.13;5086439;28;20488;-69
2022/10/09 09:11:40;;;;;;;9.20;4.53;;;;;;;20.79;41.83;101259.56;5116899;28;20474;-69
2022/10/09 09:14:22;;;;;;;6.53;4.50;;;;;;;20.80;41.78;101250.41;5112567;28;20476;-69
2022/10/09 09:16:55;;;;;;;6.50;5.20;;;;;;;20.82;41.60;101255.66;5097438;28;20478;-69
2022/10/09 09:19:40;;;;;;;9.10;5.10;;;;;;;19.72;44.26;101251.19;5097970;28;20458;-69
2022/10/09 09:22:12;;;;;;;6.13;4.40;;;;;;;20.16;43.63;101255.28;5091850;28;20485;-70
2022/10/09 09:24:42;;;;;;;6.17;4.17;;;;;;;20.63;42.80;101246.13;5114259;28;20453;-69
2022/10/09 09:27:13;;;;;;;7.43;4.80;;;;;;;20.12;44.14;101257.50;5104432;28;20527;-70
2022/10/09 09:29:43;;;;;;;8.80;4.90;;;;;;;20.30;43.26;101244.47;5101858;28;20913;-69
2022/10/09 09:32:16;;;;;;;5.60;4.70;;;;;;;20.44;44.05;101247.44;5099015;28;20474;-69
2022/10/09 09:34:43;;;;;;;8.00;5.30;;;;;;;19.90;44.88;101240.16;5099712;28;20498;-69
2022/10/09 09:37:14;;;;;;;6.23;4.83;;;;;;;19.87;45.92;101246.75;5102599;28;20485;-69
2022/10/09 09:39:41;;;;;;;8.63;4.37;;;;;;;21.09;42.29;101227.00;5100578;28;21009;-69
2022/10/09 09:42:14;;;;;;;7.40;4.30;;;;;;;20.52;43.75;101225.66;5099196;28;20544;-70
2022/10/09 09:44:45;;;;;;;10.73;5.00;;;;;;;19.79;45.75;101235.09;5100485;28;20496;-69
2022/10/09 09:47:14;;;;;;;8.00;4.40;;;;;;;19.98;45.27;101231.97;5096978;28;20525;-70
2022/10/09 09:49:53;;;;;;;7.57;4.27;;;;;;;20.04;45.01;101230.41;5089421;28;20501;-69
2022/10/09 09:52:21;;;;;;;7.10;4.00;;;;;;;19.78;46.03;101228.84;5097738;28;20528;-69
2022/10/09 09:54:49;;;;;;;6.93;3.67;;;;;;;20.69;43.95;101215.50;5097779;28;20753;-69
2022/10/09 09:57:28;;;;;;;6.17;4.23;;;;;;;20.94;42.90;101216.13;5098213;28;20478;-69
2022/10/09 09:59:54;;;;;;;8.17;4.33;;;;;;;19.91;45.46;101215.53;5099081;28;20687;-69
2022/10/09 10:02:22;;;;;;;7.57;3.90;;;;;;;20.34;44.61;101211.53;5096986;28;20470;-69
2022/10/09 10:04:51;;;;;;;5.57;4.00;;;;;;;20.30;44.92;101201.03;5099697;28;20562;-69
2022/10/09 10:07:30;;;;;;;9.77;3.87;;;;;;;21.19;41.39;101185.94;5105763;28;20496;-70
2022/10/09 10:10:06;;;;;;;9.93;3.20;;;;;;;21.40;42.00;101193.34;5094445;28;20481;-69
2022/10/09 10:12:32;;;;;;;7.07;3.57;;;;;;;21.78;40.63;101185.88;5097687;28;20446;-70
2022/10/09 10:14:59;;;;;;;5.73;3.20;;;;;;;22.90;38.58;101191.78;5095145;28;20562;-71
2022/10/09 10:17:29;;;;;;;5.83;3.00;;;;;;;22.36;39.88;101187.81;5092630;28;20959;-71
2022/10/09 10:19:55;;;;;;;6.80;3.37;;;;;;;22.74;38.16;101187.47;5102029;28;20454;-71
2022/10/09 10:22:24;;;;;;;8.77;3.43;;;;;;;22.15;39.07;101180.41;5089566;28;20486;-70
2022/10/09 10:24:56;;;;;;;6.60;2.40;;;;;;;23.17;36.08;101176.44;5103614;28;20453;-70
2022/10/09 10:27:25;;;;;;;4.00;2.20;;;;;;;23.66;34.90;101188.22;5107058;28;20982;-70
2022/10/09 10:29:55;;;;;;;8.57;3.03;;;;;;;23.95;35.58;101183.53;5085389;28;20486;-70
2022/10/09 10:32:24;;;;;;;2.97;1.60;;;;;;;23.28;36.78;101180.53;5109083;28;20470;-70
2022/10/09 10:34:54;;;;;;;4.10;1.23;;;;;;;23.69;32.20;101175.00;5101698;28;20485;-70
2022/10/09 10:37:29;;;;;;;5.87;1.60;;;;;;;23.85;32.68;101178.44;5108370;28;20485;-70
2022/10/09 10:40:02;;;;;;;5.80;1.37;;;;;;;23.03;33.20;101170.03;5100369;28;20488;-70
2022/10/09 10:42:35;;;;;;;4.53;1.33;;;;;;;22.03;34.15;101166.50;5099979;28;20500;-70
2022/10/09 10:45:04;;;;;;;4.23;1.23;;;;;;;21.32;34.81;101158.06;5102940;28;20465;-70
2022/10/09 10:47:34;;;;;;;4.70;1.90;;;;;;;22.36;34.07;101160.56;5119465;28;20470;-70
2022/10/09 10:50:02;;;;;;;3.87;1.60;;;;;;;21.08;34.60;101154.63;5122179;28;20540;-70
2022/10/09 10:52:37;;;;;;;2.00;1.00;;;;;;;20.53;34.04;101151.25;5119773;28;20485;-70
2022/10/09 10:55:16;;;;;;;6.10;1.40;;;;;;;21.88;34.32;101144.75;5122225;28;21191;-70
2022/10/09 10:57:51;;;;;;;8.13;1.33;;;;;;;21.71;34.37;101149.59;5119950;28;20489;-70
2022/10/09 11:00:18;;;;;;;3.73;1.87;;;;;;;21.54;35.02;101145.41;5102436;28;20503;-70
2022/10/09 11:03:07;;;;;;;7.30;1.83;;;;;;;21.95;33.68;101136.66;5104321;28;20496;-70
2022/10/09 11:05:42;;;;;;;3.93;1.47;;;;;;;22.49;33.32;101138.84;5097554;28;20476;-70
2022/10/09 11:08:32;;;;;;;4.37;1.30;;;;;;;22.01;33.37;101133.16;5110330;28;20454;-70
2022/10/09 11:11:05;;;;;;;4.57;1.63;;;;;;;21.89;32.43;101129.25;5101561;28;20482;-70
2022/10/09 11:13:36;;;;;;;2.10;1.23;;;;;;;21.38;33.76;101130.97;5100730;28;20542;-70
2022/10/09 11:16:15;;;;;;;4.17;1.10;;;;;;;21.11;34.72;101124.34;5097095;28;20489;-69
2022/10/09 11:18:54;;;;;;;4.63;1.47;;;;;;;21.15;34.99;101119.38;5102634;28;20461;-70
2022/10/09 11:21:30;;;;;;;4.70;1.60;;;;;;;21.79;34.33;101121.44;5096193;28;20560;-70
2022/10/09 11:24:14;;;;;;;4.53;1.57;;;;;;;23.26;31.78;101112.50;5101432;28;20450;-71
2022/10/09 11:26:47;;;;;;;3.60;1.30;;;;;;;22.04;34.27;101110.97;5100775;28;20474;-71
2022/10/09 11:29:18;;;;;;;2.27;1.30;;;;;;;23.64;31.04;101105.69;5103044;28;20438;-71
2022/10/09 11:31:47;;;;;;;6.40;1.20;;;;;;;23.86;31.17;101103.69;5095381;28;20478;-72
2022/10/09 11:34:17;;;;;;;3.20;1.60;;;;;;;23.01;31.39;101094.94;5104662;28;20486;-72